createdAt,value
2022-08-11T00:02:05.337Z,17.12
2022-08-11T00:04:58.956Z,17.09
2022-08-11T00:07:45.184Z,17.06
2022-08-11T00:10:36.030Z,17.05
2022-08-11T00:13:10.341Z,17.38
2022-08-11T00:15:48.706Z,17.58
2022-08-11T00:18:19.060Z,17.53
2022-08-11T00:20:53.935Z,17.46
2022-08-11T00:23:22.999Z,17.48
2022-08-11T00:25:53.326Z,17.43
2022-08-11T00:28:27.155Z,17.38
2022-08-11T00:30:58.397Z,17.29
2022-08-11T00:33:44.119Z,17.26
2022-08-11T00:36:28.861Z,17.21
2022-08-11T00:39:09.166Z,17.17
2022-08-11T00:42:03.949Z,17.09
2022-08-11T00:44:54.376Z,17.05
2022-08-11T00:47:38.844Z,17.01
2022-08-11T00:50:19.266Z,16.98
2022-08-11T00:53:17.489Z,16.85
2022-08-11T00:56:41.210Z,16.73
2022-08-11T00:59:36.072Z,16.66
2022-08-11T01:02:30.739Z,16.62
2022-08-11T01:05:35.410Z,16.60
2022-08-11T01:08:58.229Z,16.54
2022-08-11T01:12:00.992Z,16.48
2022-08-11T01:15:33.175Z,16.49
2022-08-11T01:18:39.105Z,16.46
2022-08-11T01:22:07.395Z,16.42
2022-08-11T01:25:33.342Z,15.79
2022-08-11T01:29:31.060Z,16.31
2022-08-11T01:32:38.417Z,16.27
2022-08-11T01:35:41.702Z,16.24
2022-08-11T01:39:07.446Z,16.19
2022-08-11T01:42:23.444Z,16.15
2022-08-11T01:45:18.022Z,15.58
2022-08-11T01:48:00.902Z,16.08
2022-08-11T01:51:19.204Z,16.04
2022-08-11T01:53:56.079Z,16.04
2022-08-11T01:56:59.249Z,16.13
2022-08-11T01:59:35.866Z,16.14
2022-08-11T02:02:48.678Z,16.16
2022-08-11T02:05:32.510Z,15.63
2022-08-11T02:08:18.909Z,15.64
2022-08-11T02:11:16.475Z,16.11
2022-08-11T02:13:55.238Z,14.47
2022-08-11T02:16:46.693Z,15.73
2022-08-11T02:19:52.019Z,14.89
2022-08-11T02:22:51.487Z,16.05
2022-08-11T02:25:31.668Z,15.99
2022-08-11T02:28:11.806Z,15.90
2022-08-11T02:32:14.710Z,15.84
2022-08-11T02:34:16.022Z,15.79
2022-08-11T02:37:05.207Z,15.75
2022-08-11T02:39:49.207Z,15.72
2022-08-11T02:42:32.869Z,15.73
2022-08-11T02:45:32.404Z,15.84
2022-08-11T02:48:26.208Z,15.81
2022-08-11T02:51:14.128Z,15.70
2022-08-11T02:54:08.210Z,15.66
2022-08-11T02:56:52.113Z,15.61
2022-08-11T02:59:53.971Z,15.53
2022-08-11T03:02:55.190Z,15.50
2022-08-11T03:05:32.920Z,15.48
2022-08-11T03:08:32.086Z,15.43
2022-08-11T03:11:28.969Z,15.37
2022-08-11T03:14:34.378Z,15.34
2022-08-11T03:17:23.315Z,15.40
2022-08-11T03:20:04.085Z,15.45
2022-08-11T03:22:46.990Z,15.46
2022-08-11T03:25:31.916Z,15.47
2022-08-11T03:28:13.274Z,15.47
2022-08-11T03:30:54.998Z,15.45
2022-08-11T03:33:45.694Z,15.41
2022-08-11T03:37:15.001Z,15.21
2022-08-11T03:39:58.740Z,15.36
2022-08-11T03:42:34.017Z,15.30
2022-08-11T03:45:20.608Z,15.28
2022-08-11T03:48:07.058Z,15.26
2022-08-11T03:50:56.141Z,15.21
2022-08-11T03:53:50.284Z,15.18
2022-08-11T03:57:04.341Z,15.14
2022-08-11T04:00:15.416Z,14.80
2022-08-11T04:03:18.807Z,15.12
2022-08-11T04:06:21.653Z,15.12
2022-08-11T04:09:41.123Z,15.09
2022-08-11T04:12:56.109Z,14.48
2022-08-11T04:16:24.534Z,15.12
2022-08-11T04:19:38.041Z,15.13
2022-08-11T04:22:39.321Z,15.17
2022-08-11T04:25:57.674Z,15.21
2022-08-11T04:28:51.052Z,15.26
2022-08-11T04:31:50.690Z,15.32
2022-08-11T04:34:50.597Z,15.37
2022-08-11T04:37:53.280Z,15.42
2022-08-11T04:41:26.871Z,15.48
2022-08-11T04:45:04.419Z,15.57
2022-08-11T04:48:10.246Z,15.62
2022-08-11T04:51:17.786Z,15.72
2022-08-11T04:54:17.102Z,15.78
2022-08-11T04:57:07.453Z,15.84
2022-08-11T05:00:26.183Z,15.67
2022-08-11T05:03:30.124Z,16.04
2022-08-11T05:06:41.884Z,16.15
2022-08-11T05:09:31.975Z,16.28
2022-08-11T05:12:33.023Z,16.05
2022-08-11T05:15:21.142Z,16.60
2022-08-11T05:18:20.963Z,15.92
2022-08-11T05:21:11.236Z,16.66
2022-08-11T05:24:03.958Z,17.16
2022-08-11T05:27:03.489Z,17.37
2022-08-11T05:30:00.649Z,17.56
2022-08-11T05:32:59.321Z,17.75
2022-08-11T05:36:01.778Z,17.79
2022-08-11T05:38:52.701Z,18.07
2022-08-11T05:41:40.714Z,18.16
2022-08-11T05:44:29.964Z,18.23
2022-08-11T05:47:16.415Z,18.32
2022-08-11T05:50:09.223Z,18.38
2022-08-11T05:53:08.887Z,18.44
2022-08-11T05:56:03.261Z,18.51
2022-08-11T05:58:43.302Z,18.57
2022-08-11T06:01:14.118Z,18.45
2022-08-11T06:04:04.089Z,18.73
2022-08-11T06:06:34.462Z,18.80
2022-08-11T06:09:04.442Z,18.85
2022-08-11T06:11:45.129Z,18.92
2022-08-11T06:14:16.536Z,18.98
2022-08-11T06:17:00.173Z,19.09
2022-08-11T06:19:37.738Z,19.13
2022-08-11T06:22:12.128Z,19.18
2022-08-11T06:24:58.131Z,19.23
2022-08-11T06:27:27.851Z,19.29
2022-08-11T06:29:57.310Z,19.38
2022-08-11T06:32:29.141Z,19.33
2022-08-11T06:35:13.711Z,19.59
2022-08-11T06:38:02.509Z,19.66
2022-08-11T06:40:39.581Z,19.74
2022-08-11T06:43:22.383Z,19.85
2022-08-11T06:46:03.251Z,19.98
2022-08-11T06:48:36.470Z,20.09
2022-08-11T06:51:16.685Z,20.19
2022-08-11T06:53:59.169Z,20.30
2022-08-11T06:57:12.526Z,20.36
2022-08-11T07:00:01.484Z,20.45
2022-08-11T07:02:34.914Z,20.53
2022-08-11T07:05:09.328Z,20.63
2022-08-11T07:08:54.573Z,20.48
2022-08-11T07:12:10.840Z,20.85
2022-08-11T07:15:09.766Z,20.88
2022-08-11T07:17:49.366Z,20.89
2022-08-11T07:20:37.202Z,21.14
2022-08-11T07:23:28.618Z,20.76
2022-08-11T07:26:21.721Z,21.33
2022-08-11T07:29:00.300Z,21.75
2022-08-11T07:31:37.995Z,21.95
2022-08-11T07:34:21.961Z,21.99
2022-08-11T07:36:53.558Z,22.05
2022-08-11T07:39:24.539Z,22.07
2022-08-11T07:41:57.117Z,22.07
2022-08-11T07:44:34.849Z,22.03
2022-08-11T07:47:22.403Z,22.20
2022-08-11T07:50:11.805Z,22.34
2022-08-11T07:52:43.243Z,22.43
2022-08-11T07:55:22.220Z,22.55
2022-08-11T07:58:34.094Z,22.62
2022-08-11T08:01:39.148Z,22.70
2022-08-11T08:04:26.902Z,22.81
2022-08-11T08:07:14.568Z,22.94
2022-08-11T08:10:03.017Z,22.39
2022-08-11T08:12:50.471Z,23.12
2022-08-11T08:15:38.929Z,23.21
2022-08-11T08:18:26.472Z,23.30
2022-08-11T08:21:12.107Z,23.42
2022-08-11T08:23:54.058Z,23.57
2022-08-11T08:26:43.241Z,23.96
2022-08-11T08:29:39.257Z,24.25
2022-08-11T08:32:11.191Z,24.29
2022-08-11T08:34:46.757Z,23.24
2022-08-11T08:37:46.891Z,24.37
2022-08-11T08:40:05.436Z,24.38
2022-08-11T08:42:45.250Z,24.44
2022-08-11T08:45:18.555Z,24.45
2022-08-11T08:47:56.034Z,24.60
2022-08-11T08:50:50.419Z,24.54
2022-08-11T08:53:24.625Z,24.53
2022-08-11T08:55:56.891Z,24.61
2022-08-11T08:58:26.106Z,24.84
2022-08-11T09:01:01.050Z,24.84
2022-08-11T09:04:02.949Z,24.77
2022-08-11T09:06:33.051Z,24.83
2022-08-11T09:09:04.017Z,24.94
2022-08-11T09:11:50.556Z,25.02
2022-08-11T09:14:20.475Z,25.14
2022-08-11T09:16:50.473Z,25.16
2022-08-11T09:19:22.304Z,25.10
2022-08-11T09:22:09.618Z,25.13
2022-08-11T09:25:00.972Z,25.17
2022-08-11T09:27:29.770Z,25.14
2022-08-11T09:29:59.899Z,25.18
2022-08-11T09:32:31.506Z,25.18
2022-08-11T09:35:04.743Z,25.28
2022-08-11T09:37:58.317Z,25.37
2022-08-11T09:40:33.395Z,25.40
2022-08-11T09:43:24.524Z,25.29
2022-08-11T09:45:56.964Z,25.10
2022-08-11T09:48:31.880Z,25.46
2022-08-11T09:51:02.599Z,25.43
2022-08-11T09:53:40.961Z,25.37
2022-08-11T09:56:38.598Z,25.30
2022-08-11T09:59:07.832Z,25.45
2022-08-11T10:01:55.549Z,25.59
2022-08-11T10:04:35.527Z,25.46
2022-08-11T10:07:06.889Z,25.31
2022-08-11T10:09:48.992Z,25.21
2022-08-11T10:12:24.515Z,25.32
2022-08-11T10:15:18.593Z,25.59
2022-08-11T10:18:08.139Z,25.62
2022-08-11T10:20:39.030Z,25.63
2022-08-11T10:23:27.188Z,25.58
2022-08-11T10:26:15.355Z,25.63
2022-08-11T10:29:11.657Z,25.43
2022-08-11T10:31:59.343Z,25.69
2022-08-11T10:34:33.206Z,25.67
2022-08-11T10:37:03.661Z,25.74
2022-08-11T10:39:33.064Z,25.78
2022-08-11T10:42:35.428Z,25.96
2022-08-11T10:45:26.775Z,25.82
2022-08-11T10:47:59.657Z,25.74
2022-08-11T10:50:49.625Z,25.73
2022-08-11T10:53:38.017Z,25.98
2022-08-11T10:56:25.720Z,26.01
2022-08-11T10:59:09.810Z,26.14
2022-08-11T11:01:42.642Z,26.08
2022-08-11T11:04:17.357Z,26.06
2022-08-11T11:06:55.397Z,26.10
2022-08-11T11:09:32.454Z,26.05
2022-08-11T11:12:30.278Z,26.00
2022-08-11T11:15:22.593Z,26.05
2022-08-11T11:18:01.481Z,26.09
2022-08-11T11:20:38.690Z,26.07
2022-08-11T11:23:19.995Z,26.01
2022-08-11T11:26:27.602Z,26.06
2022-08-11T11:29:37.930Z,26.11
2022-08-11T11:32:31.292Z,25.71
2022-08-11T11:35:27.953Z,25.96
2022-08-11T11:38:05.688Z,26.04
2022-08-11T11:40:42.877Z,26.17
2022-08-11T11:43:12.430Z,26.14
2022-08-11T11:45:43.273Z,26.11
2022-08-11T11:48:21.393Z,26.18
2022-08-11T11:50:53.703Z,26.30
2022-08-11T11:53:28.393Z,26.29
2022-08-11T11:56:01.665Z,26.30
2022-08-11T11:58:48.150Z,26.34
2022-08-11T12:01:17.174Z,26.54
2022-08-11T12:03:54.822Z,26.43
2022-08-11T12:06:28.585Z,26.51
2022-08-11T12:09:05.074Z,26.50
2022-08-11T12:11:51.660Z,26.35
2022-08-11T12:14:25.793Z,26.30
2022-08-11T12:17:05.374Z,26.38
2022-08-11T12:19:36.145Z,26.36
2022-08-11T12:22:22.978Z,26.79
2022-08-11T12:25:11.734Z,26.73
2022-08-11T12:27:43.218Z,26.80
2022-08-11T12:30:21.391Z,26.78
2022-08-11T12:32:59.436Z,26.77
2022-08-11T12:35:31.832Z,26.78
2022-08-11T12:38:10.064Z,26.85
2022-08-11T12:41:17.692Z,26.80
2022-08-11T12:44:08.489Z,26.68
2022-08-11T12:46:39.809Z,26.57
2022-08-11T12:49:32.026Z,26.61
2022-08-11T12:52:15.545Z,26.71
2022-08-11T12:55:00.612Z,26.78
2022-08-11T12:57:51.546Z,27.00
2022-08-11T13:00:39.108Z,27.16
2022-08-11T13:03:29.779Z,27.08
2022-08-11T13:06:05.817Z,27.07
2022-08-11T13:08:39.315Z,27.03
2022-08-11T13:11:56.800Z,26.97
2022-08-11T13:14:22.958Z,27.17
2022-08-11T13:17:16.009Z,27.21
2022-08-11T13:19:49.890Z,27.15
2022-08-11T13:22:32.532Z,26.98
2022-08-11T13:25:17.153Z,26.94
2022-08-11T13:27:57.283Z,27.08
2022-08-11T13:30:56.806Z,27.28
2022-08-11T13:33:47.582Z,27.35
2022-08-11T13:36:27.310Z,27.20
2022-08-11T13:39:01.410Z,27.27
2022-08-11T13:41:42.073Z,27.29
2022-08-11T13:44:21.587Z,27.29
2022-08-11T13:47:03.979Z,27.29
2022-08-11T13:49:35.153Z,27.32
2022-08-11T13:52:09.625Z,27.40
2022-08-11T13:54:43.660Z,27.37
2022-08-11T13:58:07.656Z,27.42
2022-08-11T14:00:27.636Z,27.58
2022-08-11T14:03:18.965Z,27.49
2022-08-11T14:05:52.081Z,27.32
2022-08-11T14:08:38.152Z,27.26
2022-08-11T14:12:21.965Z,27.32
2022-08-11T14:14:29.025Z,27.39
2022-08-11T14:17:09.327Z,27.30
2022-08-11T14:19:57.528Z,27.28
2022-08-11T14:22:29.380Z,27.29
2022-08-11T14:25:08.483Z,27.41
2022-08-11T14:28:33.773Z,27.44
2022-08-11T14:31:01.778Z,27.54
2022-08-11T14:33:58.633Z,27.35
2022-08-11T14:36:35.235Z,27.49
2022-08-11T14:39:13.188Z,27.65
2022-08-11T14:42:11.593Z,27.59
2022-08-11T14:45:03.859Z,27.63
2022-08-11T14:47:39.254Z,27.57
2022-08-11T14:50:18.010Z,27.54
2022-08-11T14:53:00.629Z,27.47
2022-08-11T14:55:48.702Z,27.45
2022-08-11T14:58:27.895Z,27.66
2022-08-11T15:01:03.412Z,27.66
2022-08-11T15:03:37.711Z,27.63
2022-08-11T15:06:07.341Z,27.75
2022-08-11T15:08:56.528Z,27.77
2022-08-11T15:11:49.475Z,27.69
2022-08-11T15:14:42.408Z,27.77
2022-08-11T15:17:13.038Z,27.81
2022-08-11T15:19:59.747Z,27.83
2022-08-11T15:22:48.608Z,27.72
2022-08-11T15:25:28.842Z,27.71
2022-08-11T15:28:21.900Z,27.65
2022-08-11T15:31:14.030Z,27.69
2022-08-11T15:34:14.115Z,27.68
2022-08-11T15:37:17.652Z,27.71
2022-08-11T15:40:08.313Z,27.67
2022-08-11T15:43:28.421Z,27.67
2022-08-11T15:46:11.147Z,27.66
2022-08-11T15:48:48.518Z,27.75
2022-08-11T15:51:26.519Z,27.85
2022-08-11T15:54:09.056Z,27.79
2022-08-11T15:56:45.430Z,27.66
2022-08-11T15:59:46.663Z,27.64
2022-08-11T16:02:35.555Z,27.62
2022-08-11T16:05:11.106Z,27.65
2022-08-11T16:07:42.595Z,27.66
2022-08-11T16:10:21.771Z,27.53
2022-08-11T16:13:22.559Z,27.58
2022-08-11T16:16:08.571Z,27.68
2022-08-11T16:18:56.159Z,27.70
2022-08-11T16:21:36.148Z,27.72
2022-08-11T16:26:30.590Z,27.66
2022-08-11T16:27:14.272Z,27.73
2022-08-11T16:29:47.959Z,27.82
2022-08-11T16:32:27.654Z,27.68
2022-08-11T16:35:19.057Z,27.54
2022-08-11T16:38:07.464Z,27.43
2022-08-11T16:40:42.300Z,27.42
2022-08-11T16:43:34.237Z,27.41
2022-08-11T16:46:24.473Z,27.36
2022-08-11T16:48:59.014Z,27.36
2022-08-11T16:51:27.981Z,27.53
2022-08-11T16:54:04.740Z,27.64
2022-08-11T16:56:41.418Z,27.45
2022-08-11T16:59:18.960Z,27.88
2022-08-11T17:01:57.289Z,27.87
2022-08-11T17:05:00.056Z,27.89
2022-08-11T17:07:51.541Z,27.97
2022-08-11T17:10:53.739Z,28.05
2022-08-11T17:13:38.570Z,28.17
2022-08-11T17:16:13.908Z,28.15
2022-08-11T17:18:51.272Z,28.13
2022-08-11T17:21:27.136Z,28.13
2022-08-11T17:23:59.091Z,28.14
2022-08-11T17:26:47.337Z,27.89
2022-08-11T17:29:18.482Z,28.12
2022-08-11T17:32:10.072Z,28.08
2022-08-11T17:34:59.146Z,28.04
2022-08-11T17:37:31.178Z,27.99
2022-08-11T17:40:06.058Z,28.03
2022-08-11T17:42:54.463Z,28.05
2022-08-11T17:45:42.627Z,27.96
2022-08-11T17:48:29.392Z,27.84
2022-08-11T17:51:01.077Z,27.63
2022-08-11T17:54:10.194Z,27.37
2022-08-11T17:57:02.763Z,26.99
2022-08-11T17:59:49.934Z,26.65
2022-08-11T18:02:40.475Z,26.36
2022-08-11T18:05:13.425Z,26.06
2022-08-11T18:08:02.369Z,25.83
2022-08-11T18:10:51.322Z,25.67
2022-08-11T18:13:39.721Z,25.39
2022-08-11T18:16:26.180Z,25.23
2022-08-11T18:19:12.850Z,25.09
2022-08-11T18:22:14.362Z,24.90
2022-08-11T18:25:08.905Z,24.79
2022-08-11T18:27:57.505Z,24.55
2022-08-11T18:30:45.469Z,24.31
2022-08-11T18:33:56.882Z,24.24
2022-08-11T18:36:42.480Z,24.09
2022-08-11T18:39:32.635Z,23.94
2022-08-11T18:42:29.298Z,23.73
2022-08-11T18:45:20.449Z,23.54
2022-08-11T18:48:11.520Z,23.35
2022-08-11T18:51:31.152Z,23.12
2022-08-11T18:54:13.139Z,22.97
2022-08-11T18:57:04.227Z,22.82
2022-08-11T19:00:00.621Z,22.67
2022-08-11T19:02:50.126Z,22.54
2022-08-11T19:06:33.693Z,22.45
2022-08-11T19:08:48.779Z,22.35
2022-08-11T19:11:38.188Z,22.22
2022-08-11T19:14:31.754Z,22.03
2022-08-11T19:17:43.676Z,21.95
2022-08-11T19:20:31.906Z,21.81
2022-08-11T19:23:20.393Z,21.71
2022-08-11T19:26:08.222Z,21.62
2022-08-11T19:28:58.288Z,21.51
2022-08-11T19:31:46.868Z,21.48
2022-08-11T19:34:37.616Z,21.42
2022-08-11T19:37:25.939Z,21.34
2022-08-11T19:40:13.880Z,21.34
2022-08-11T19:43:02.011Z,21.08
2022-08-11T19:45:52.244Z,21.30
2022-08-11T19:48:43.402Z,21.18
2022-08-11T19:51:31.298Z,21.07
2022-08-11T19:54:18.655Z,20.96
2022-08-11T19:57:05.860Z,20.84
2022-08-11T19:59:55.416Z,20.71
2022-08-11T20:02:44.076Z,20.71
2022-08-11T20:05:31.547Z,20.77
2022-08-11T20:08:20.182Z,20.70
2022-08-11T20:11:10.735Z,20.64
2022-08-11T20:13:59.831Z,20.57
2022-08-11T20:16:46.791Z,20.50
2022-08-11T20:19:56.645Z,20.42
2022-08-11T20:22:45.532Z,20.27
2022-08-11T20:25:33.251Z,20.21
2022-08-11T20:28:21.219Z,20.18
2022-08-11T20:31:09.407Z,20.17
2022-08-11T20:33:57.164Z,20.15
2022-08-11T20:36:45.077Z,20.22
2022-08-11T20:39:35.939Z,20.23
2022-08-11T20:42:28.443Z,20.26
2022-08-11T20:45:23.644Z,20.31
2022-08-11T20:48:15.329Z,20.26
2022-08-11T20:51:06.455Z,20.12
2022-08-11T20:53:59.714Z,20.05
2022-08-11T20:56:54.838Z,19.93
2022-08-11T20:59:49.548Z,19.90
2022-08-11T21:02:45.275Z,19.91
2022-08-11T21:08:48.314Z,19.94
2022-08-11T21:11:35.623Z,19.98
2022-08-11T21:14:26.448Z,19.91
2022-08-11T21:17:26.919Z,19.80
2022-08-11T21:20:21.040Z,19.81
2022-08-11T21:23:14.936Z,19.88
2022-08-11T21:26:15.689Z,19.88
2022-08-11T21:29:02.754Z,19.84
2022-08-11T21:31:52.819Z,19.81
2022-08-11T21:34:40.783Z,19.81
2022-08-11T21:37:28.380Z,19.79
2022-08-11T21:40:17.467Z,19.73
2022-08-11T21:43:07.351Z,19.70
2022-08-11T21:45:57.021Z,19.63
2022-08-11T21:48:46.658Z,19.53
2022-08-11T21:51:33.162Z,19.53
2022-08-11T21:54:21.409Z,19.56
2022-08-11T21:57:09.109Z,19.48
2022-08-11T22:00:02.490Z,19.44
2022-08-11T22:02:57.804Z,19.37
2022-08-11T22:05:47.254Z,19.29
2022-08-11T22:08:34.943Z,19.21
2022-08-11T22:11:31.813Z,19.15
2022-08-11T22:14:19.285Z,19.05
2022-08-11T22:17:05.872Z,19.01
2022-08-11T22:19:55.166Z,18.91
2022-08-11T22:22:51.873Z,18.79
2022-08-11T22:25:44.234Z,18.68
2022-08-11T22:28:38.452Z,18.56
2022-08-11T22:31:26.801Z,18.51
2022-08-11T22:34:13.850Z,18.43
2022-08-11T22:37:01.520Z,18.40
2022-08-11T22:40:00.740Z,18.38
2022-08-11T22:42:54.288Z,18.39
2022-08-11T22:45:41.233Z,18.39
2022-08-11T22:48:38.925Z,18.38
2022-08-11T22:51:28.347Z,18.33
2022-08-11T22:54:16.077Z,18.26
2022-08-11T22:57:06.779Z,18.30
2022-08-11T22:59:55.399Z,18.36
2022-08-11T23:02:42.076Z,18.37
2022-08-11T23:05:28.969Z,18.37
2022-08-11T23:08:17.161Z,18.30
2022-08-11T23:11:05.330Z,18.23
2022-08-11T23:13:53.472Z,18.17
2022-08-11T23:16:41.004Z,18.12
2022-08-11T23:20:09.032Z,18.10
2022-08-11T23:22:49.420Z,18.09
2022-08-11T23:25:36.852Z,18.02
2022-08-11T23:28:27.126Z,17.93
2022-08-11T23:31:17.239Z,17.83
2022-08-11T23:34:08.277Z,17.79
2022-08-11T23:37:19.210Z,17.75
2022-08-11T23:40:05.356Z,17.70
2022-08-11T23:42:56.716Z,17.60
2022-08-11T23:45:43.830Z,17.51
2022-08-11T23:48:34.480Z,17.45
2022-08-11T23:51:21.411Z,17.41
2022-08-11T23:54:08.724Z,17.35
2022-08-11T23:56:58.221Z,17.27
2022-08-11T23:59:44.630Z,17.20
